createdAt,value
2019-02-02T00:00:43.631Z,23.87
2019-02-02T00:01:52.451Z,23.25
2019-02-02T00:02:57.637Z,18.40
2019-02-02T00:04:03.284Z,16.52
2019-02-02T00:05:08.890Z,28.25
2019-02-02T00:06:13.982Z,24.32
2019-02-02T00:07:18.993Z,22.17
2019-02-02T00:08:24.265Z,21.35
2019-02-02T00:09:29.631Z,18.87
2019-02-02T00:10:35.755Z,19.12
2019-02-02T00:11:41.128Z,17.12
2019-02-02T00:12:46.204Z,19.55
2019-02-02T00:13:51.250Z,19.95
2019-02-02T00:14:56.297Z,20.50
2019-02-02T00:16:01.770Z,19.27
2019-02-02T00:17:07.272Z,19.45
2019-02-02T00:18:12.657Z,22.25
2019-02-02T00:19:17.971Z,25.20
2019-02-02T00:20:23.157Z,23.12
2019-02-02T00:21:28.358Z,22.40
2019-02-02T00:22:33.376Z,20.48
2019-02-02T00:23:38.485Z,17.85
2019-02-02T00:24:44.009Z,18.30
2019-02-02T00:25:49.384Z,17.87
2019-02-02T00:26:54.894Z,23.32
2019-02-02T00:28:00.361Z,20.52
2019-02-02T00:29:05.753Z,24.75
2019-02-02T00:30:13.145Z,24.80
2019-02-02T00:31:18.153Z,25.32
2019-02-02T00:32:23.175Z,22.48
2019-02-02T00:33:28.175Z,20.32
2019-02-02T00:34:33.463Z,23.65
2019-02-02T00:35:38.612Z,31.30
2019-02-02T00:36:43.574Z,19.95
2019-02-02T00:37:48.890Z,19.27
2019-02-02T00:38:54.208Z,24.70
2019-02-02T00:39:59.460Z,21.77
2019-02-02T00:41:04.577Z,21.75
2019-02-02T00:42:09.938Z,17.92
2019-02-02T00:43:15.431Z,19.98
2019-02-02T00:44:20.439Z,17.20
2019-02-02T00:45:25.548Z,17.95
2019-02-02T00:46:30.894Z,18.73
2019-02-02T00:47:36.278Z,24.32
2019-02-02T00:48:41.597Z,21.57
2019-02-02T00:49:46.904Z,20.68
2019-02-02T00:50:52.370Z,20.95
2019-02-02T00:51:58.000Z,20.40
2019-02-02T00:53:03.514Z,17.87
2019-02-02T00:54:08.832Z,20.68
2019-02-02T00:55:15.183Z,22.48
2019-02-02T00:56:20.177Z,19.73
2019-02-02T00:57:25.461Z,19.15
2019-02-02T00:58:30.477Z,25.35
2019-02-02T00:59:35.483Z,20.40
2019-02-02T01:00:40.476Z,21.65
2019-02-02T01:01:45.747Z,17.60
2019-02-02T01:02:50.838Z,19.45
2019-02-02T01:03:56.165Z,21.50
2019-02-02T01:05:01.582Z,19.73
2019-02-02T01:06:07.184Z,19.23
2019-02-02T01:07:12.839Z,24.32
2019-02-02T01:08:17.912Z,23.80
2019-02-02T01:09:25.757Z,21.23
2019-02-02T01:10:32.486Z,18.55
2019-02-02T01:11:37.631Z,22.15
2019-02-02T01:12:43.081Z,24.75
2019-02-02T01:13:48.139Z,17.35
2019-02-02T01:14:53.130Z,21.12
2019-02-02T01:15:58.174Z,16.62
2019-02-02T01:17:03.242Z,21.93
2019-02-02T01:18:08.973Z,21.77
2019-02-02T01:19:14.369Z,23.52
2019-02-02T01:20:20.985Z,18.80
2019-02-02T01:21:26.372Z,21.05
2019-02-02T01:22:31.672Z,20.05
2019-02-02T01:23:36.689Z,21.20
2019-02-02T01:24:43.209Z,17.92
2019-02-02T01:25:48.243Z,22.77
2019-02-02T01:26:53.637Z,22.05
2019-02-02T01:28:05.259Z,29.75
2019-02-02T01:29:05.874Z,21.77
2019-02-02T01:30:12.989Z,23.27
2019-02-02T01:31:18.090Z,18.67
2019-02-02T01:32:23.467Z,23.92
2019-02-02T01:33:28.570Z,17.77
2019-02-02T01:34:33.644Z,17.77
2019-02-02T01:35:39.070Z,20.60
2019-02-02T01:36:44.191Z,19.90
2019-02-02T01:37:50.855Z,23.12
2019-02-02T01:38:56.518Z,19.60
2019-02-02T01:40:01.835Z,17.35
2019-02-02T01:41:07.516Z,17.25
2019-02-02T01:42:12.728Z,19.52
2019-02-02T01:43:17.879Z,17.82
2019-02-02T01:44:22.891Z,23.83
2019-02-02T01:45:28.415Z,17.65
2019-02-02T01:46:33.864Z,18.30
2019-02-02T01:47:39.025Z,18.12
2019-02-02T01:48:44.185Z,21.42
2019-02-02T01:49:49.820Z,13.43
2019-02-02T01:50:55.518Z,17.48
2019-02-02T01:52:00.536Z,19.07
2019-02-02T01:53:05.996Z,18.85
2019-02-02T01:54:11.071Z,14.40
2019-02-02T01:55:16.463Z,14.90
2019-02-02T01:56:21.460Z,17.60
2019-02-02T01:57:27.873Z,16.45
2019-02-02T01:58:32.985Z,17.02
2019-02-02T01:59:38.034Z,18.87
2019-02-02T02:00:43.025Z,15.10
2019-02-02T02:01:48.004Z,17.00
2019-02-02T02:02:53.320Z,21.07
2019-02-02T02:03:58.578Z,17.23
2019-02-02T02:05:03.704Z,19.65
2019-02-02T02:06:09.137Z,16.05
2019-02-02T02:07:14.165Z,15.55
2019-02-02T02:08:19.554Z,20.10
2019-02-02T02:09:24.506Z,22.22
2019-02-02T02:10:29.889Z,21.75
2019-02-02T02:11:35.326Z,19.07
2019-02-02T02:12:40.992Z,20.68
2019-02-02T02:13:46.582Z,16.67
2019-02-02T02:14:51.605Z,14.90
2019-02-02T02:15:56.657Z,18.30
2019-02-02T02:17:01.613Z,15.30
2019-02-02T02:18:07.163Z,13.72
2019-02-02T02:19:12.182Z,16.65
2019-02-02T02:20:18.437Z,18.12
2019-02-02T02:21:23.815Z,14.75
2019-02-02T02:22:28.868Z,20.75
2019-02-02T02:23:34.192Z,20.57
2019-02-02T02:24:39.628Z,14.47
2019-02-02T02:25:44.573Z,25.48
2019-02-02T02:26:49.915Z,18.80
2019-02-02T02:27:54.910Z,16.85
2019-02-02T02:29:00.344Z,19.95
2019-02-02T02:30:06.833Z,17.82
2019-02-02T02:31:12.240Z,20.15
2019-02-02T02:32:17.238Z,15.05
2019-02-02T02:33:22.619Z,18.25
2019-02-02T02:34:27.900Z,22.52
2019-02-02T02:35:33.299Z,19.23
2019-02-02T02:36:38.481Z,14.15
2019-02-02T02:37:44.177Z,17.12
2019-02-02T02:38:52.833Z,17.52
2019-02-02T02:39:57.957Z,25.23
2019-02-02T02:41:03.003Z,20.40
2019-02-02T02:42:08.298Z,20.12
2019-02-02T02:43:13.433Z,19.50
2019-02-02T02:44:18.736Z,19.98
2019-02-02T02:45:23.748Z,16.77
2019-02-02T02:46:28.696Z,23.10
2019-02-02T02:47:34.529Z,22.75
2019-02-02T02:48:39.853Z,17.00
2019-02-02T02:49:45.368Z,17.20
2019-02-02T02:50:50.677Z,22.13
2019-02-02T02:51:56.425Z,19.48
2019-02-02T02:53:01.346Z,19.73
2019-02-02T02:54:07.253Z,20.10
2019-02-02T02:55:13.212Z,19.15
2019-02-02T02:56:18.908Z,20.72
2019-02-02T02:57:24.234Z,20.08
2019-02-02T02:58:40.999Z,16.97
2019-02-02T02:59:37.480Z,23.35
2019-02-02T03:00:42.573Z,27.07
2019-02-02T03:01:47.645Z,26.00
2019-02-02T03:02:52.858Z,21.50
2019-02-02T03:03:58.065Z,19.60
2019-02-02T03:05:03.099Z,24.55
2019-02-02T03:06:08.086Z,20.17
2019-02-02T03:07:13.028Z,24.57
2019-02-02T03:08:18.131Z,19.85
2019-02-02T03:09:26.170Z,26.17
2019-02-02T03:10:31.280Z,22.10
2019-02-02T03:11:36.312Z,20.00
2019-02-02T03:12:41.804Z,18.62
2019-02-02T03:13:47.525Z,25.90
2019-02-02T03:14:52.770Z,21.82
2019-02-02T03:15:57.795Z,19.87
2019-02-02T03:17:03.172Z,18.73
2019-02-02T03:18:08.255Z,23.75
2019-02-02T03:19:14.046Z,18.40
2019-02-02T03:20:19.462Z,23.18
2019-02-02T03:21:24.759Z,20.75
2019-02-02T03:22:30.342Z,21.85
2019-02-02T03:23:35.671Z,17.10
2019-02-02T03:24:40.597Z,23.83
2019-02-02T03:25:47.172Z,23.12
2019-02-02T03:26:52.340Z,16.42
2019-02-02T03:27:57.419Z,22.32
2019-02-02T03:29:03.092Z,19.25
2019-02-02T03:30:10.828Z,20.48
2019-02-02T03:31:15.860Z,26.42
2019-02-02T03:32:24.009Z,18.37
2019-02-02T03:33:29.334Z,19.75
2019-02-02T03:34:34.376Z,18.17
2019-02-02T03:35:39.409Z,20.65
2019-02-02T03:36:44.744Z,20.45
2019-02-02T03:37:50.087Z,20.85
2019-02-02T03:38:55.398Z,22.55
2019-02-02T03:40:00.440Z,22.05
2019-02-02T03:41:06.004Z,20.02
2019-02-02T03:42:11.020Z,18.17
2019-02-02T03:43:16.674Z,23.32
2019-02-02T03:44:22.161Z,28.35
2019-02-02T03:45:27.147Z,24.07
2019-02-02T03:46:32.728Z,22.85
2019-02-02T03:47:37.990Z,20.97
2019-02-02T03:48:43.772Z,23.15
2019-02-02T03:49:48.974Z,24.90
2019-02-02T03:50:54.066Z,23.18
2019-02-02T03:51:59.035Z,23.98
2019-02-02T03:53:04.235Z,21.70
2019-02-02T03:54:09.661Z,26.48
2019-02-02T03:55:15.210Z,23.55
2019-02-02T03:56:20.325Z,23.02
2019-02-02T03:57:25.341Z,22.82
2019-02-02T03:58:30.513Z,25.20
2019-02-02T03:59:35.939Z,23.90
2019-02-02T04:00:41.313Z,27.25
2019-02-02T04:01:47.446Z,25.50
2019-02-02T04:02:52.461Z,21.02
2019-02-02T04:03:57.750Z,24.25
2019-02-02T04:05:02.997Z,28.20
2019-02-02T04:06:07.997Z,23.30
2019-02-02T04:07:13.112Z,29.85
2019-02-02T04:08:18.059Z,28.52
2019-02-02T04:09:23.150Z,24.52
2019-02-02T04:10:28.390Z,24.67
2019-02-02T04:11:33.967Z,25.17
2019-02-02T04:12:39.090Z,24.02
2019-02-02T04:13:44.286Z,19.15
2019-02-02T04:14:49.276Z,22.30
2019-02-02T04:15:54.205Z,22.20
2019-02-02T04:16:59.497Z,27.32
2019-02-02T04:18:04.640Z,26.82
2019-02-02T04:19:09.818Z,26.42
2019-02-02T04:20:16.981Z,20.62
2019-02-02T04:21:22.030Z,22.20
2019-02-02T04:22:27.035Z,22.52
2019-02-02T04:23:32.350Z,23.25
2019-02-02T04:24:37.630Z,24.82
2019-02-02T04:25:43.342Z,26.23
2019-02-02T04:26:49.031Z,25.05
2019-02-02T04:27:54.388Z,23.38
2019-02-02T04:28:59.736Z,23.75
2019-02-02T04:30:07.104Z,23.95
2019-02-02T04:31:12.599Z,25.25
2019-02-02T04:32:18.608Z,25.52
2019-02-02T04:33:23.769Z,26.42
2019-02-02T04:34:28.982Z,28.27
2019-02-02T04:35:34.501Z,21.37
2019-02-02T04:36:39.531Z,23.87
2019-02-02T04:37:44.661Z,30.45
2019-02-02T04:38:50.348Z,28.65
2019-02-02T04:39:55.568Z,24.98
2019-02-02T04:41:00.615Z,26.15
2019-02-02T04:42:05.687Z,24.45
2019-02-02T04:43:12.201Z,22.10
2019-02-02T04:44:17.167Z,22.45
2019-02-02T04:45:22.415Z,22.20
2019-02-02T04:46:27.437Z,23.98
2019-02-02T04:47:33.104Z,28.47
2019-02-02T04:48:38.108Z,26.23
2019-02-02T04:49:43.297Z,21.48
2019-02-02T04:50:49.015Z,21.77
2019-02-02T04:51:54.433Z,24.20
2019-02-02T04:52:59.525Z,26.25
2019-02-02T04:54:04.878Z,19.77
2019-02-02T04:55:10.740Z,34.23
2019-02-02T04:56:15.721Z,26.55
2019-02-02T04:57:20.777Z,23.60
2019-02-02T04:58:26.195Z,27.37
2019-02-02T04:59:31.490Z,27.80
2019-02-02T05:00:36.881Z,21.65
2019-02-02T05:01:42.266Z,23.65
2019-02-02T05:02:47.474Z,26.40
2019-02-02T05:03:54.252Z,23.38
2019-02-02T05:04:59.282Z,21.77
2019-02-02T05:06:04.280Z,28.10
2019-02-02T05:07:09.350Z,24.00
2019-02-02T05:08:14.558Z,28.95
2019-02-02T05:09:19.784Z,28.98
2019-02-02T05:10:25.099Z,32.70
2019-02-02T05:11:30.864Z,21.85
2019-02-02T05:12:38.698Z,29.52
2019-02-02T05:13:43.645Z,23.90
2019-02-02T05:14:48.733Z,26.60
2019-02-02T05:15:53.857Z,23.75
2019-02-02T05:16:59.975Z,28.57
2019-02-02T05:18:05.385Z,25.27
2019-02-02T05:19:10.410Z,22.58
2019-02-02T05:20:15.967Z,26.80
2019-02-02T05:21:21.002Z,30.20
2019-02-02T05:22:26.084Z,25.45
2019-02-02T05:23:31.321Z,26.20
2019-02-02T05:24:36.878Z,29.00
2019-02-02T05:25:41.917Z,27.50
2019-02-02T05:26:47.711Z,29.48
2019-02-02T05:27:53.103Z,27.50
2019-02-02T05:28:58.222Z,34.18
2019-02-02T05:30:03.285Z,29.27
2019-02-02T05:31:08.383Z,31.23
2019-02-02T05:32:13.469Z,24.32
2019-02-02T05:33:18.838Z,26.27
2019-02-02T05:34:24.014Z,29.55
2019-02-02T05:35:29.503Z,22.60
2019-02-02T05:36:34.794Z,26.00
2019-02-02T05:37:40.684Z,25.45
2019-02-02T05:38:45.704Z,24.92
2019-02-02T05:39:50.972Z,25.75
2019-02-02T05:40:56.208Z,22.25
2019-02-02T05:42:01.725Z,21.93
2019-02-02T05:43:07.643Z,26.05
2019-02-02T05:44:12.719Z,25.30
2019-02-02T05:45:19.584Z,23.52
2019-02-02T05:46:24.540Z,27.62
2019-02-02T05:47:29.862Z,27.85
2019-02-02T05:48:35.280Z,22.17
2019-02-02T05:49:40.201Z,25.72
2019-02-02T05:50:45.483Z,28.50
2019-02-02T05:51:50.464Z,24.20
2019-02-02T05:52:56.174Z,26.27
2019-02-02T05:54:01.193Z,23.45
2019-02-02T05:55:08.152Z,25.55
2019-02-02T05:56:13.163Z,25.25
2019-02-02T05:57:18.173Z,25.90
2019-02-02T05:58:23.608Z,21.82
2019-02-02T05:59:28.954Z,25.17
2019-02-02T06:00:53.999Z,29.07
2019-02-02T06:01:59.046Z,18.92
2019-02-02T06:03:04.487Z,26.95
2019-02-02T06:04:09.731Z,19.77
2019-02-02T06:05:14.848Z,22.67
2019-02-02T06:06:20.981Z,24.95
2019-02-02T06:07:26.252Z,25.72
2019-02-02T06:08:31.236Z,22.95
2019-02-02T06:09:36.619Z,19.60
2019-02-02T06:10:44.939Z,22.58
2019-02-02T06:11:50.342Z,19.15
2019-02-02T06:12:55.945Z,22.52
2019-02-02T06:14:01.127Z,23.40
2019-02-02T06:15:06.551Z,20.02
2019-02-02T06:16:11.907Z,24.75
2019-02-02T06:17:16.846Z,19.20
2019-02-02T06:18:21.881Z,17.50
2019-02-02T06:19:27.151Z,24.40
2019-02-02T06:20:32.542Z,22.30
2019-02-02T06:21:37.789Z,24.27
2019-02-02T06:22:43.130Z,22.15
2019-02-02T06:23:48.204Z,18.85
2019-02-02T06:24:53.523Z,24.35
2019-02-02T06:25:58.538Z,25.90
2019-02-02T06:27:03.562Z,26.40
2019-02-02T06:28:08.953Z,17.50
2019-02-02T06:29:13.936Z,22.48
2019-02-02T06:30:19.546Z,20.62
2019-02-02T06:31:24.624Z,15.53
2019-02-02T06:32:29.603Z,19.85
2019-02-02T06:33:35.026Z,18.15
2019-02-02T06:34:40.018Z,18.90
2019-02-02T06:35:45.664Z,19.60
2019-02-02T06:36:50.667Z,17.17
2019-02-02T06:37:55.946Z,16.52
2019-02-02T06:39:01.017Z,17.85
2019-02-02T06:40:06.388Z,21.93
2019-02-02T06:41:11.350Z,16.42
2019-02-02T06:42:16.706Z,17.10
2019-02-02T06:43:21.711Z,15.60
2019-02-02T06:44:26.956Z,14.90
2019-02-02T06:45:34.164Z,15.43
2019-02-02T06:46:43.562Z,18.27
2019-02-02T06:47:46.392Z,19.15
2019-02-02T06:48:51.767Z,21.40
2019-02-02T06:49:57.004Z,17.52
2019-02-02T06:51:02.483Z,21.93
2019-02-02T06:52:08.066Z,20.02
2019-02-02T06:53:13.918Z,15.70
2019-02-02T06:54:18.910Z,15.78
2019-02-02T06:55:24.383Z,24.40
2019-02-02T06:56:29.311Z,23.65
2019-02-02T06:57:34.992Z,20.55
2019-02-02T06:58:40.291Z,16.20
2019-02-02T06:59:45.330Z,18.90
2019-02-02T07:00:50.815Z,18.62
2019-02-02T07:01:58.106Z,18.62
2019-02-02T07:03:03.220Z,17.80
2019-02-02T07:04:08.523Z,15.15
2019-02-02T07:05:14.510Z,18.10
2019-02-02T07:06:19.527Z,20.35
2019-02-02T07:07:24.531Z,17.62
2019-02-02T07:08:30.541Z,18.70
2019-02-02T07:09:36.889Z,17.10
2019-02-02T07:10:41.963Z,18.32
2019-02-02T07:11:46.913Z,15.68
2019-02-02T07:12:52.252Z,25.35
2019-02-02T07:13:57.948Z,21.55
2019-02-02T07:15:02.981Z,15.78
2019-02-02T07:16:08.152Z,21.50
2019-02-02T07:17:13.527Z,20.62
2019-02-02T07:18:19.003Z,16.02
2019-02-02T07:19:24.703Z,16.45
2019-02-02T07:20:30.111Z,13.43
2019-02-02T07:21:35.487Z,18.73
2019-02-02T07:22:40.576Z,18.55
2019-02-02T07:23:45.854Z,18.32
2019-02-02T07:24:50.853Z,16.10
2019-02-02T07:25:55.864Z,17.00
2019-02-02T07:27:00.967Z,17.45
2019-02-02T07:28:06.040Z,17.23
2019-02-02T07:29:10.964Z,20.10
2019-02-02T07:30:28.188Z,18.95
2019-02-02T07:31:27.689Z,20.70
2019-02-02T07:32:33.989Z,20.27
2019-02-02T07:33:39.047Z,25.37
2019-02-02T07:34:44.165Z,20.00
2019-02-02T07:35:49.219Z,18.05
2019-02-02T07:36:54.207Z,22.45
2019-02-02T07:37:59.256Z,21.17
2019-02-02T07:39:07.487Z,20.10
2019-02-02T07:40:14.650Z,22.00
2019-02-02T07:41:19.600Z,21.87
2019-02-02T07:42:24.606Z,20.88
2019-02-02T07:43:29.690Z,26.45
2019-02-02T07:44:34.954Z,19.67
2019-02-02T07:45:40.006Z,24.67
2019-02-02T07:46:44.934Z,22.98
2019-02-02T07:47:50.011Z,18.37
2019-02-02T07:48:55.049Z,24.40
2019-02-02T07:50:00.054Z,20.00
2019-02-02T07:51:05.580Z,21.52
2019-02-02T07:52:10.873Z,22.20
2019-02-02T07:53:18.612Z,28.77
2019-02-02T07:54:23.934Z,29.10
2019-02-02T07:55:29.177Z,21.62
2019-02-02T07:56:34.822Z,22.10
2019-02-02T07:57:40.065Z,23.60
2019-02-02T07:58:45.349Z,23.10
2019-02-02T07:59:50.500Z,21.17
2019-02-02T08:00:55.618Z,20.30
2019-02-02T08:02:00.892Z,20.57
2019-02-02T08:03:09.177Z,23.92
2019-02-02T08:04:14.263Z,22.35
2019-02-02T08:05:19.944Z,19.02
2019-02-02T08:06:24.942Z,24.45
2019-02-02T08:07:29.950Z,27.67
2019-02-02T08:08:35.056Z,23.45
2019-02-02T08:09:40.045Z,22.35
2019-02-02T08:10:46.586Z,21.42
2019-02-02T08:11:51.778Z,23.45
2019-02-02T08:12:57.051Z,21.52
2019-02-02T08:14:02.190Z,22.40
2019-02-02T08:15:09.347Z,23.80
2019-02-02T08:16:14.288Z,23.02
2019-02-02T08:17:19.241Z,24.45
2019-02-02T08:18:24.540Z,21.15
2019-02-02T08:19:29.811Z,22.67
2019-02-02T08:20:35.114Z,22.25
2019-02-02T08:21:40.221Z,20.70
2019-02-02T08:22:45.438Z,24.15
2019-02-02T08:23:50.773Z,26.68
2019-02-02T08:24:56.061Z,22.95
2019-02-02T08:26:01.068Z,27.35
2019-02-02T08:27:06.430Z,21.40
2019-02-02T08:28:11.388Z,22.65
2019-02-02T08:29:16.755Z,24.77
2019-02-02T08:30:26.897Z,23.73
2019-02-02T08:31:32.495Z,21.52
2019-02-02T08:32:37.892Z,26.45
2019-02-02T08:33:45.336Z,22.40
2019-02-02T08:34:49.998Z,25.92
2019-02-02T08:35:55.389Z,26.30
2019-02-02T08:37:00.453Z,22.40
2019-02-02T08:38:06.430Z,25.62
2019-02-02T08:39:11.538Z,21.20
2019-02-02T08:40:17.330Z,29.82
2019-02-02T08:41:22.786Z,26.15
2019-02-02T08:42:27.890Z,26.77
2019-02-02T08:43:33.236Z,26.87
2019-02-02T08:44:38.436Z,26.02
2019-02-02T08:45:44.225Z,27.60
2019-02-02T08:46:49.259Z,27.25
2019-02-02T08:47:54.565Z,25.95
2019-02-02T08:48:59.780Z,29.23
2019-02-02T08:50:07.383Z,25.30
2019-02-02T08:51:12.872Z,26.07
2019-02-02T08:52:18.423Z,26.55
2019-02-02T08:53:24.173Z,30.10
2019-02-02T08:54:29.117Z,33.10
2019-02-02T08:55:35.471Z,30.32
2019-02-02T08:56:40.544Z,29.05
2019-02-02T08:57:46.264Z,31.62
2019-02-02T08:58:51.220Z,29.52
2019-02-02T08:59:59.752Z,32.10
2019-02-02T09:01:04.934Z,31.42
2019-02-02T09:02:10.053Z,32.70
2019-02-02T09:03:34.206Z,33.75
2019-02-02T09:04:39.328Z,31.20
2019-02-02T09:05:44.486Z,31.73
2019-02-02T09:06:49.882Z,34.90
2019-02-02T09:07:55.287Z,35.17
2019-02-02T09:09:00.342Z,37.15
2019-02-02T09:10:08.341Z,33.20
2019-02-02T09:11:13.717Z,33.20
2019-02-02T09:12:19.146Z,37.80
2019-02-02T09:13:25.412Z,35.60
2019-02-02T09:14:30.454Z,32.85
2019-02-02T09:15:36.080Z,34.65
2019-02-02T09:16:41.377Z,33.67
2019-02-02T09:17:46.577Z,38.25
2019-02-02T09:18:52.265Z,39.15
2019-02-02T09:19:57.194Z,37.48
2019-02-02T09:21:02.267Z,33.10
2019-02-02T09:22:07.375Z,32.53
2019-02-02T09:23:12.699Z,38.15
2019-02-02T09:24:17.666Z,35.73
2019-02-02T09:25:23.071Z,35.35
2019-02-02T09:26:28.067Z,38.50
2019-02-02T09:27:33.541Z,35.88
2019-02-02T09:28:38.543Z,37.73
2019-02-02T09:29:44.147Z,37.28
2019-02-02T09:30:49.278Z,37.55
2019-02-02T09:31:54.361Z,38.55
2019-02-02T09:32:59.450Z,36.40
2019-02-02T09:34:04.578Z,39.85
2019-02-02T09:35:09.955Z,41.58
2019-02-02T09:36:16.872Z,37.42
2019-02-02T09:37:22.032Z,36.63
2019-02-02T09:38:27.077Z,34.10
2019-02-02T09:39:32.346Z,38.78
2019-02-02T09:40:37.777Z,37.15
2019-02-02T09:41:43.224Z,39.38
2019-02-02T09:42:48.449Z,37.95
2019-02-02T09:43:53.751Z,39.48
2019-02-02T09:44:58.750Z,35.65
2019-02-02T09:46:04.775Z,37.23
2019-02-02T09:47:09.910Z,42.90
2019-02-02T09:48:14.904Z,39.15
2019-02-02T09:49:20.031Z,42.15
2019-02-02T09:50:25.543Z,42.70
2019-02-02T09:51:30.589Z,46.20
2019-02-02T09:52:36.407Z,51.70
2019-02-02T09:53:41.837Z,41.40
2019-02-02T09:54:47.212Z,41.30
2019-02-02T09:55:52.561Z,46.02
2019-02-02T09:56:57.924Z,45.55
2019-02-02T09:58:08.876Z,39.55
2019-02-02T09:59:14.012Z,46.42
2019-02-02T10:00:24.553Z,42.38
2019-02-02T10:01:29.846Z,43.30
2019-02-02T10:02:34.988Z,44.23
2019-02-02T10:03:40.099Z,44.70
2019-02-02T10:04:45.761Z,45.45
2019-02-02T10:05:50.975Z,40.78
2019-02-02T10:06:56.217Z,48.58
2019-02-02T10:08:01.331Z,43.25
2019-02-02T10:09:09.658Z,46.85
2019-02-02T10:10:19.947Z,54.45
2019-02-02T10:11:26.270Z,49.23
2019-02-02T10:12:31.831Z,47.83
2019-02-02T10:13:37.096Z,50.05
2019-02-02T10:14:43.220Z,45.15
2019-02-02T10:15:49.523Z,47.90
2019-02-02T10:16:54.745Z,50.58
2019-02-02T10:18:00.324Z,60.05
2019-02-02T10:19:06.228Z,52.40
2019-02-02T10:20:13.958Z,49.80
2019-02-02T10:21:19.187Z,51.10
2019-02-02T10:22:24.487Z,48.52
2019-02-02T10:23:29.667Z,55.88
2019-02-02T10:24:35.083Z,52.90
2019-02-02T10:25:41.160Z,51.98
2019-02-02T10:26:46.361Z,46.48
2019-02-02T10:27:53.091Z,50.52
2019-02-02T10:28:58.353Z,53.10
2019-02-02T10:30:04.188Z,52.30
2019-02-02T10:31:09.720Z,52.15
2019-02-02T10:32:14.962Z,42.80
2019-02-02T10:33:20.202Z,54.27
2019-02-02T10:34:25.547Z,51.60
2019-02-02T10:35:31.166Z,51.53
2019-02-02T10:36:36.216Z,49.05
2019-02-02T10:37:42.743Z,46.50
2019-02-02T10:38:48.015Z,50.83
2019-02-02T10:39:53.441Z,50.60
2019-02-02T10:40:59.043Z,48.65
2019-02-02T10:42:04.468Z,53.20
2019-02-02T10:43:13.093Z,53.65
2019-02-02T10:44:18.187Z,53.85
2019-02-02T10:45:23.377Z,58.28
2019-02-02T10:46:28.965Z,56.30
2019-02-02T10:47:35.691Z,52.85
2019-02-02T10:48:44.977Z,50.67
2019-02-02T10:49:50.393Z,53.65
2019-02-02T10:50:55.627Z,53.85
2019-02-02T10:52:02.493Z,53.70
2019-02-02T10:53:08.347Z,51.77
2019-02-02T10:54:13.884Z,53.25
2019-02-02T10:55:19.636Z,51.90
2019-02-02T10:56:25.167Z,55.75
2019-02-02T10:57:30.773Z,50.70
2019-02-02T10:58:36.003Z,57.78
2019-02-02T10:59:49.067Z,60.17
2019-02-02T11:00:54.581Z,58.25
2019-02-02T11:01:59.729Z,53.55
2019-02-02T11:03:05.519Z,60.92
2019-02-02T11:04:10.576Z,49.60
2019-02-02T11:05:16.514Z,54.13
2019-02-02T11:06:22.096Z,53.73
2019-02-02T11:07:27.769Z,56.20
2019-02-02T11:08:33.305Z,53.05
2019-02-02T11:09:38.785Z,56.75
2019-02-02T11:10:44.486Z,56.58
2019-02-02T11:11:49.720Z,51.53
2019-02-02T11:12:55.497Z,56.55
2019-02-02T11:14:00.728Z,58.75
2019-02-02T11:15:08.464Z,57.08
2019-02-02T11:16:13.776Z,56.53
2019-02-02T11:17:19.604Z,63.52
2019-02-02T11:18:24.894Z,54.53
2019-02-02T11:19:30.254Z,55.12
2019-02-02T11:20:36.306Z,53.58
2019-02-02T11:21:43.071Z,55.48
2019-02-02T11:22:48.906Z,63.40
2019-02-02T11:23:54.621Z,55.90
2019-02-02T11:24:59.921Z,58.10
2019-02-02T11:26:05.130Z,57.88
2019-02-02T11:27:12.546Z,60.60
2019-02-02T11:28:17.981Z,59.63
2019-02-02T11:29:23.745Z,60.55
2019-02-02T11:30:30.236Z,53.92
2019-02-02T11:31:36.175Z,47.85
2019-02-02T11:32:45.119Z,52.08
2019-02-02T11:33:51.044Z,59.25
2019-02-02T11:34:56.687Z,60.03
2019-02-02T11:36:01.803Z,55.55
2019-02-02T11:37:06.788Z,57.05
2019-02-02T11:38:11.822Z,63.48
2019-02-02T11:39:17.213Z,59.70
2019-02-02T11:40:26.377Z,61.35
2019-02-02T11:41:31.398Z,55.90
2019-02-02T11:42:36.452Z,63.58
2019-02-02T11:43:41.375Z,44.58
2019-02-02T11:44:46.709Z,60.50
2019-02-02T11:45:52.115Z,57.98
2019-02-02T11:46:57.175Z,60.50
2019-02-02T11:48:02.249Z,60.35
2019-02-02T11:49:07.264Z,69.45
2019-02-02T11:50:13.667Z,64.32
2019-02-02T11:51:18.882Z,57.25
2019-02-02T11:52:24.365Z,60.67
2019-02-02T11:53:29.358Z,56.95
2019-02-02T11:54:34.947Z,62.17
2019-02-02T11:55:40.030Z,60.95
2019-02-02T11:56:45.058Z,59.05
2019-02-02T11:57:50.329Z,67.87
2019-02-02T11:58:55.413Z,59.48
2019-02-02T12:00:00.674Z,64.85
2019-02-02T12:01:06.670Z,61.58
2019-02-02T12:02:14.882Z,63.52
2019-02-02T12:03:20.541Z,57.58
2019-02-02T12:04:26.153Z,61.55
2019-02-02T12:05:31.213Z,44.13
2019-02-02T12:06:36.811Z,66.95
2019-02-02T12:07:42.369Z,42.67
2019-02-02T12:08:49.331Z,63.50
2019-02-02T12:09:54.053Z,61.63
2019-02-02T12:10:59.082Z,69.60
2019-02-02T12:12:04.143Z,57.48
2019-02-02T12:13:09.146Z,65.30
2019-02-02T12:14:14.424Z,57.85
2019-02-02T12:15:20.059Z,53.68
2019-02-02T12:16:25.089Z,56.88
2019-02-02T12:17:30.225Z,58.15
2019-02-02T12:18:35.178Z,60.08
2019-02-02T12:19:41.234Z,60.65
2019-02-02T12:20:46.707Z,56.88
2019-02-02T12:21:52.066Z,52.55
2019-02-02T12:22:57.303Z,54.25
2019-02-02T12:24:13.381Z,57.20
2019-02-02T12:25:09.873Z,48.87
2019-02-02T12:26:15.250Z,51.70
2019-02-02T12:27:20.186Z,53.87
2019-02-02T12:28:25.291Z,54.03
2019-02-02T12:29:30.296Z,47.98
2019-02-02T12:30:36.320Z,53.13
2019-02-02T12:31:41.283Z,53.00
2019-02-02T12:32:46.379Z,49.85
2019-02-02T12:33:51.664Z,51.00
2019-02-02T12:34:56.959Z,56.20
2019-02-02T12:36:02.655Z,51.55
2019-02-02T12:37:07.818Z,58.15
2019-02-02T12:38:13.132Z,52.85
2019-02-02T12:41:24.464Z,53.58
2019-02-02T12:42:29.395Z,48.28
2019-02-02T12:43:34.901Z,46.13
2019-02-02T12:44:39.842Z,51.05
2019-02-02T12:45:50.487Z,51.18
2019-02-02T12:46:55.436Z,52.62
2019-02-02T12:48:00.576Z,48.45
2019-02-02T12:49:05.936Z,49.42
2019-02-02T12:50:12.360Z,56.15
2019-02-02T12:51:17.269Z,49.42
2019-02-02T12:52:25.302Z,54.70
2019-02-02T12:53:28.970Z,50.50
2019-02-02T12:54:33.961Z,49.73
2019-02-02T12:55:39.036Z,59.00
2019-02-02T12:56:43.979Z,50.48
2019-02-02T12:57:48.904Z,48.52
2019-02-02T12:58:54.225Z,46.48
2019-02-02T12:59:59.442Z,49.45
2019-02-02T13:01:04.529Z,46.92
2019-02-02T13:02:09.593Z,50.78
2019-02-02T13:03:14.515Z,44.05
2019-02-02T13:04:19.428Z,53.35
2019-02-02T13:05:24.826Z,48.00
2019-02-02T13:06:29.869Z,57.53
2019-02-02T13:07:34.894Z,48.28
2019-02-02T13:08:39.932Z,52.13
2019-02-02T13:09:45.186Z,54.13
2019-02-02T13:10:50.261Z,55.08
2019-02-02T13:11:56.176Z,49.40
2019-02-02T13:13:01.436Z,36.08
2019-02-02T13:14:06.524Z,46.42
2019-02-02T13:15:12.150Z,51.18
2019-02-02T13:16:17.353Z,47.05
2019-02-02T13:17:22.834Z,50.92
2019-02-02T13:18:27.739Z,58.25
2019-02-02T13:19:32.692Z,51.25
2019-02-02T13:20:37.764Z,53.98
2019-02-02T13:21:43.923Z,54.65
2019-02-02T13:22:49.211Z,55.80
2019-02-02T13:23:54.222Z,48.40
2019-02-02T13:24:59.154Z,50.88
2019-02-02T13:26:05.738Z,54.35
2019-02-02T13:27:10.715Z,50.55
2019-02-02T13:28:15.728Z,46.73
2019-02-02T13:29:20.659Z,52.15
2019-02-02T13:30:28.075Z,55.23
2019-02-02T13:31:33.116Z,51.25
2019-02-02T13:32:49.159Z,44.48
2019-02-02T13:33:44.867Z,54.80
2019-02-02T13:34:49.867Z,53.55
2019-02-02T13:35:54.863Z,51.70
2019-02-02T13:36:59.910Z,49.65
2019-02-02T13:38:05.744Z,48.60
2019-02-02T13:39:12.417Z,53.40
2019-02-02T13:40:19.125Z,49.83
2019-02-02T13:41:24.053Z,50.88
2019-02-02T13:42:29.049Z,47.30
2019-02-02T13:43:34.071Z,59.03
2019-02-02T13:44:39.142Z,56.83
2019-02-02T13:45:44.070Z,52.88
2019-02-02T13:46:49.058Z,47.85
2019-02-02T13:47:54.060Z,56.37
2019-02-02T13:48:58.968Z,55.80
2019-02-02T13:50:05.212Z,57.88
2019-02-02T13:51:10.589Z,55.38
2019-02-02T13:52:15.921Z,54.67
2019-02-02T13:53:21.262Z,49.77
2019-02-02T13:54:26.432Z,53.95
2019-02-02T13:55:31.503Z,56.25
2019-02-02T13:56:36.472Z,48.60
2019-02-02T13:57:42.004Z,52.40
2019-02-02T13:58:47.291Z,51.53
2019-02-02T13:59:52.239Z,56.02
2019-02-02T14:00:57.598Z,53.75
2019-02-02T14:02:02.562Z,57.45
2019-02-02T14:03:07.741Z,58.10
2019-02-02T14:04:12.796Z,54.45
2019-02-02T14:05:18.400Z,55.15
2019-02-02T14:06:23.429Z,60.63